Time;durP1;ratioP1;P1;durP2;ratioP2;P2;SDS_P1;SDS_P2;PMS_P1;PMS_P2;Temp;Humidity;BMP_temperature;BMP_pressure;BME280_temperature;BME280_humidity;BME280_pressure;Samples;Min_cycle;Max_cycle;Signal;HPM_P1;HPM_P2
2024/02/24 00:01:24;;;;;;;10.68;6.20;;;;;;;12.15;88.77;98931.50;5094108;28;20109;-50
2024/02/24 00:03:52;;;;;;;13.60;6.55;;;;;;;12.11;89.09;98924.75;5093848;28;20050;-46
2024/02/24 00:06:21;;;;;;;11.93;6.82;;;;;;;12.02;89.02;98919.22;5093626;28;20052;-46
2024/02/24 00:08:49;;;;;;;9.68;6.28;;;;;;;12.08;88.73;98928.53;5093450;28;20052;-48
2024/02/24 00:11:17;;;;;;;9.95;5.90;;;;;;;12.11;88.89;98922.06;5093376;28;20046;-46
2024/02/24 00:13:45;;;;;;;11.48;6.10;;;;;;;12.11;89.21;98917.56;5093530;28;20073;-46
2024/02/24 00:16:15;;;;;;;11.00;6.25;;;;;;;12.09;89.38;98913.34;5093415;28;20551;-50
2024/02/24 00:18:43;;;;;;;10.95;5.85;;;;;;;12.07;89.18;98912.66;5093661;28;20123;-45
2024/02/24 00:21:12;;;;;;;11.27;6.18;;;;;;;12.12;89.20;98921.09;5093459;28;20055;-46
2024/02/24 00:23:40;;;;;;;13.60;6.30;;;;;;;12.12;88.67;98919.28;5093183;28;20110;-46
2024/02/24 00:26:09;;;;;;;11.57;6.28;;;;;;;12.04;88.89;98930.63;5093329;28;20135;-45
2024/02/24 00:28:37;;;;;;;14.95;6.18;;;;;;;12.11;88.48;98930.94;5093380;28;20056;-47
2024/02/24 00:31:06;;;;;;;9.25;5.85;;;;;;;12.10;88.78;98931.94;5093312;28;20047;-46
2024/02/24 00:33:35;;;;;;;10.18;6.00;;;;;;;12.11;88.49;98925.59;5093047;28;20047;-49
2024/02/24 00:36:05;;;;;;;11.40;6.20;;;;;;;12.10;88.05;98936.44;5093105;28;20131;-46
2024/02/24 00:38:33;;;;;;;10.80;5.85;;;;;;;12.14;88.54;98933.34;5093178;28;20048;-46
2024/02/24 00:41:02;;;;;;;11.07;6.18;;;;;;;12.17;89.22;98932.25;5093034;28;20048;-47
2024/02/24 00:43:31;;;;;;;10.65;6.65;;;;;;;12.16;89.19;98930.53;5092721;28;20094;-47
2024/02/24 00:46:00;;;;;;;9.98;5.95;;;;;;;12.12;89.00;98929.13;5092785;28;20117;-46
2024/02/24 00:48:29;;;;;;;10.35;6.22;;;;;;;12.11;89.57;98930.94;5092915;28;20052;-47
2024/02/24 00:50:59;;;;;;;11.07;6.05;;;;;;;12.16;88.58;98930.53;5092507;28;20515;-46
2024/02/24 00:53:28;;;;;;;11.50;6.10;;;;;;;12.13;89.23;98928.13;5092867;28;20105;-49
2024/02/24 00:55:56;;;;;;;10.18;6.30;;;;;;;12.17;89.22;98929.56;5092871;28;20056;-47
2024/02/24 00:58:27;;;;;;;10.35;6.38;;;;;;;12.21;88.74;98939.84;5092922;28;20050;-44
2024/02/24 01:00:55;;;;;;;11.38;6.13;;;;;;;12.26;88.47;98936.78;5092927;28;20054;-46
2024/02/24 01:03:24;;;;;;;10.98;5.93;;;;;;;12.24;89.37;98930.69;5092469;28;20052;-51
2024/02/24 01:05:53;;;;;;;9.30;5.82;;;;;;;12.26;89.41;98926.09;5092527;28;20048;-48
2024/02/24 01:08:22;;;;;;;11.82;6.05;;;;;;;12.25;90.24;98919.03;5092233;28;20040;-46
2024/02/24 01:10:50;;;;;;;9.25;5.88;;;;;;;12.20;91.68;98910.59;5092452;28;20059;-48
2024/02/24 01:13:19;;;;;;;9.50;6.32;;;;;;;12.18;92.65;98912.56;5092282;28;20051;-44
2024/02/24 01:15:47;;;;;;;10.95;5.82;;;;;;;12.17;92.40;98910.88;5092217;28;20139;-48
2024/02/24 01:18:15;;;;;;;10.25;6.10;;;;;;;12.17;93.23;98905.50;5092420;28;20040;-46
2024/02/24 01:20:48;;;;;;;10.75;6.75;;;;;;;12.18;94.09;98907.22;5092619;28;20052;-45
2024/02/24 01:23:17;;;;;;;10.75;6.22;;;;;;;12.19;93.55;98916.91;5092335;28;20097;-47
2024/02/24 01:25:47;;;;;;;11.68;6.45;;;;;;;12.15;94.13;98916.31;5092250;28;20044;-46
2024/02/24 01:28:15;;;;;;;10.23;6.03;;;;;;;12.15;94.09;98912.78;5092097;28;20091;-46
2024/02/24 01:30:44;;;;;;;10.90;5.55;;;;;;;12.14;94.86;98908.44;5092158;28;20052;-46
2024/02/24 01:33:12;;;;;;;9.93;6.18;;;;;;;12.15;96.01;98912.78;5091968;28;20066;-48
2024/02/24 01:35:40;;;;;;;12.13;6.50;;;;;;;12.11;96.74;98903.38;5091995;28;20081;-47
2024/02/24 01:38:09;;;;;;;11.38;6.82;;;;;;;12.07;97.08;98904.63;5092151;28;20051;-46
2024/02/24 01:40:38;;;;;;;11.23;6.75;;;;;;;12.07;98.07;98904.63;5091847;28;20101;-46
2024/02/24 01:43:26;;;;;;;11.40;6.60;;;;;;;12.07;99.21;98910.81;5091647;28;20119;-46
2024/02/24 01:45:56;;;;;;;10.43;5.85;;;;;;;12.06;97.47;98903.75;5091510;28;20051;-48
2024/02/24 01:48:28;;;;;;;12.73;6.00;;;;;;;12.07;98.27;98900.13;5091474;28;20056;-50
2024/02/24 01:50:57;;;;;;;9.40;6.22;;;;;;;12.08;97.93;98903.66;5091586;28;20073;-48
2024/02/24 01:53:26;;;;;;;11.10;6.15;;;;;;;12.12;96.83;98897.03;5090964;28;20123;-48
2024/02/24 01:55:55;;;;;;;13.65;6.47;;;;;;;12.12;97.35;98902.38;5091164;28;20429;-47
2024/02/24 01:58:24;;;;;;;11.65;6.43;;;;;;;12.11;97.60;98908.72;5091254;28;20040;-49
2024/02/24 02:00:53;;;;;;;10.02;5.95;;;;;;;12.07;97.81;98905.47;5091383;28;20043;-49
2024/02/24 02:03:22;;;;;;;10.48;6.47;;;;;;;12.07;97.66;98909.97;5091174;28;20058;-48
2024/02/24 02:05:50;;;;;;;12.75;6.80;;;;;;;12.06;98.20;98908.25;5091277;28;20135;-45
2024/02/24 02:08:19;;;;;;;9.02;5.93;;;;;;;12.08;97.74;98909.00;5091221;28;20055;-47
2024/02/24 02:10:48;;;;;;;9.30;5.80;;;;;;;12.09;97.94;98913.34;5090973;28;20055;-45
2024/02/24 02:13:16;;;;;;;13.25;7.03;;;;;;;12.08;97.60;98917.84;5091346;28;20048;-48
2024/02/24 02:15:45;;;;;;;11.18;6.30;;;;;;;12.09;95.54;98908.00;5091108;28;20098;-46
2024/02/24 02:18:15;;;;;;;11.13;6.57;;;;;;;12.09;96.24;98918.69;5091032;28;20044;-47
2024/02/24 02:20:44;;;;;;;12.25;7.07;;;;;;;12.11;96.87;98916.72;5091042;28;20048;-47
2024/02/24 02:23:14;;;;;;;9.98;6.00;;;;;;;12.13;96.58;98925.47;5090824;28;20044;-46
2024/02/24 02:25:42;;;;;;;10.35;6.00;;;;;;;12.11;97.09;98924.75;5090854;28;20523;-46
2024/02/24 02:28:14;;;;;;;9.93;6.00;;;;;;;12.08;97.81;98927.69;5090758;28;20476;-46
2024/02/24 02:30:42;;;;;;;11.07;5.65;;;;;;;12.05;98.04;98928.78;5090882;28;20185;-46
2024/02/24 02:33:11;;;;;;;9.98;6.03;;;;;;;12.01;98.91;98928.22;5090979;28;20404;-45
2024/02/24 02:35:39;;;;;;;11.82;6.18;;;;;;;12.01;98.58;98925.56;5090882;28;20052;-46
2024/02/24 02:38:10;;;;;;;10.88;6.80;;;;;;;11.99;98.03;98924.00;5090974;28;20470;-46
2024/02/24 02:40:40;;;;;;;12.57;6.38;;;;;;;11.99;98.56;98927.53;5090954;28;20051;-50
2024/02/24 02:43:08;;;;;;;13.00;6.60;;;;;;;12.00;98.22;98934.56;5090536;28;20493;-48
2024/02/24 02:45:36;;;;;;;9.73;5.97;;;;;;;11.99;99.23;98935.53;5090810;28;20101;-47
2024/02/24 02:48:06;;;;;;;10.57;6.32;;;;;;;12.00;100.00;98944.41;5090468;28;20054;-48
2024/02/24 02:50:38;;;;;;;9.60;5.90;;;;;;;11.99;100.00;98946.22;5090645;28;20519;-46
2024/02/24 02:53:06;;;;;;;10.55;6.47;;;;;;;11.98;100.00;98955.22;5090408;28;20076;-46
2024/02/24 02:55:35;;;;;;;11.15;6.38;;;;;;;11.98;100.00;98954.38;5090289;28;20048;-47
2024/02/24 02:58:06;;;;;;;9.65;6.70;;;;;;;11.99;100.00;98962.25;5090701;28;20044;-47
2024/02/24 03:00:34;;;;;;;10.55;6.45;;;;;;;11.98;100.00;98952.56;5090517;28;20055;-48
2024/02/24 03:03:03;;;;;;;9.65;5.93;;;;;;;11.96;100.00;98961.66;5090509;28;20048;-47
2024/02/24 03:05:32;;;;;;;9.35;5.82;;;;;;;11.99;100.00;98958.75;5090135;28;20457;-47
2024/02/24 03:08:00;;;;;;;9.68;6.07;;;;;;;11.94;100.00;98961.78;5094673;28;20054;-48
2024/02/24 03:10:29;;;;;;;10.80;6.50;;;;;;;11.97;100.00;98966.91;5094634;28;20146;-48
2024/02/24 03:12:58;;;;;;;11.15;5.88;;;;;;;11.92;100.00;98965.59;5094755;28;20083;-46
2024/02/24 03:15:27;;;;;;;11.18;6.03;;;;;;;11.92;100.00;98984.28;5094561;28;20098;-47
2024/02/24 03:17:55;;;;;;;10.05;6.00;;;;;;;11.89;100.00;98993.44;5094574;28;20048;-49
2024/02/24 03:20:24;;;;;;;9.57;6.28;;;;;;;11.90;100.00;98997.78;5094763;28;20189;-48
2024/02/24 03:22:52;;;;;;;11.65;6.32;;;;;;;11.92;100.00;99001.16;5094390;28;20046;-51
2024/02/24 03:25:20;;;;;;;9.55;5.90;;;;;;;11.90;100.00;99003.13;5094362;28;20166;-48
2024/02/24 03:27:49;;;;;;;9.70;6.22;;;;;;;11.89;100.00;99009.47;5094368;28;20074;-46
2024/02/24 03:30:18;;;;;;;9.63;5.97;;;;;;;11.92;100.00;99009.19;5094141;28;20056;-47
2024/02/24 03:32:48;;;;;;;11.93;6.53;;;;;;;11.91;100.00;99018.19;5094274;28;20052;-46
2024/02/24 03:35:16;;;;;;;9.82;6.07;;;;;;;11.91;100.00;99023.53;5094400;28;20158;-47
2024/02/24 03:37:45;;;;;;;11.30;6.45;;;;;;;11.88;100.00;99023.78;5094205;28;20048;-46
2024/02/24 03:40:13;;;;;;;10.07;6.20;;;;;;;11.88;100.00;99033.63;5094157;28;20109;-46
2024/02/24 03:42:45;;;;;;;10.73;5.78;;;;;;;11.86;100.00;99028.41;5093898;28;20055;-46
2024/02/24 03:45:13;;;;;;;9.18;6.13;;;;;;;11.82;100.00;99028.81;5093805;28;20117;-46
2024/02/24 03:47:41;;;;;;;9.50;6.30;;;;;;;11.74;100.00;99026.75;5094116;28;20044;-45
2024/02/24 03:50:11;;;;;;;9.73;6.15;;;;;;;11.68;100.00;99028.13;5093848;28;20514;-45
2024/02/24 03:52:39;;;;;;;9.73;5.75;;;;;;;11.55;100.00;99026.59;5093892;28;20081;-44
2024/02/24 03:55:09;;;;;;;9.02;5.82;;;;;;;11.52;100.00;99032.19;5093566;28;20474;-47
2024/02/24 03:57:37;;;;;;;9.57;5.55;;;;;;;11.55;100.00;99032.78;5093761;28;20093;-47
2024/02/24 04:00:08;;;;;;;10.23;6.20;;;;;;;11.56;100.00;99022.94;5093862;28;20051;-46
2024/02/24 04:02:36;;;;;;;11.43;5.80;;;;;;;11.59;100.00;99025.38;5093661;28;20048;-46
2024/02/24 04:05:05;;;;;;;10.43;5.68;;;;;;;11.58;100.00;99031.66;5093684;28;20127;-48
2024/02/24 04:07:35;;;;;;;10.23;5.13;;;;;;;11.61;100.00;99036.78;5093680;28;20102;-47
2024/02/24 04:10:04;;;;;;;10.13;5.30;;;;;;;11.66;100.00;99042.56;5093302;28;20052;-47
2024/02/24 04:12:34;;;;;;;9.40;5.40;;;;;;;11.63;100.00;99048.16;5093429;28;20131;-46
2024/02/24 04:15:02;;;;;;;12.38;5.15;;;;;;;11.63;100.00;99043.66;5093285;28;20146;-45
2024/02/24 04:17:31;;;;;;;9.13;5.22;;;;;;;11.58;100.00;99039.69;5092773;28;20056;-48
2024/02/24 04:19:59;;;;;;;9.45;5.30;;;;;;;11.52;100.00;99032.19;5093268;28;20059;-48
2024/02/24 04:22:28;;;;;;;7.35;4.70;;;;;;;11.51;100.00;99042.03;5093035;28;20519;-45
2024/02/24 04:24:58;;;;;;;10.32;4.97;;;;;;;11.50;100.00;99050.19;5093220;28;20307;-47
2024/02/24 04:27:26;;;;;;;10.15;5.53;;;;;;;11.46;100.00;99044.22;5093369;28;20122;-46
2024/02/24 04:29:54;;;;;;;9.00;4.80;;;;;;;11.41;100.00;99041.94;5092975;28;20052;-47
2024/02/24 04:32:23;;;;;;;10.15;5.38;;;;;;;11.41;100.00;99044.63;5092981;28;20120;-46
2024/02/24 04:34:51;;;;;;;8.30;4.80;;;;;;;11.36;100.00;99046.81;5092940;28;20051;-48
2024/02/24 04:37:20;;;;;;;11.50;5.00;;;;;;;11.44;100.00;99046.19;5092993;28;20052;-48
2024/02/24 04:39:48;;;;;;;8.05;4.60;;;;;;;11.39;100.00;99051.91;5092743;28;20040;-48
2024/02/24 04:42:17;;;;;;;9.98;4.80;;;;;;;11.30;100.00;99047.31;5092823;28;20059;-47
2024/02/24 04:44:49;;;;;;;9.52;5.10;;;;;;;11.21;100.00;99040.06;5093015;28;20055;-47
2024/02/24 04:47:18;;;;;;;10.30;5.00;;;;;;;11.32;100.00;99045.38;5092831;28;20083;-47
2024/02/24 04:49:46;;;;;;;10.27;4.90;;;;;;;11.33;100.00;99047.06;5092559;28;20492;-48
2024/02/24 04:52:15;;;;;;;9.18;4.70;;;;;;;11.24;100.00;99052.31;5092797;28;20071;-49
2024/02/24 04:54:43;;;;;;;9.27;5.05;;;;;;;11.19;100.00;99047.34;5092599;28;20143;-48
2024/02/24 04:57:11;;;;;;;7.32;4.78;;;;;;;11.02;100.00;99050.56;5092526;28;20113;-45
2024/02/24 04:59:43;;;;;;;9.55;4.90;;;;;;;11.13;100.00;99053.19;5092506;28;20059;-46
2024/02/24 05:02:12;;;;;;;9.80;5.22;;;;;;;11.11;100.00;99053.31;5092372;28;20058;-46
2024/02/24 05:04:40;;;;;;;9.45;4.82;;;;;;;11.12;100.00;99047.00;5092485;28;20044;-48
2024/02/24 05:07:08;;;;;;;10.77;5.20;;;;;;;11.13;100.00;99053.19;5092206;28;20056;-47
2024/02/24 05:09:37;;;;;;;7.63;4.55;;;;;;;11.04;100.00;99059.28;5092196;28;20366;-46
2024/02/24 05:12:05;;;;;;;9.70;5.05;;;;;;;11.07;100.00;99053.66;5092372;28;20100;-51
2024/02/24 05:14:37;;;;;;;7.97;5.03;;;;;;;11.10;100.00;99059.63;5092181;28;20051;-47
2024/02/24 05:17:07;;;;;;;8.77;5.13;;;;;;;11.08;100.00;99060.69;5092230;28;20051;-52
2024/02/24 05:19:36;;;;;;;9.77;5.00;;;;;;;11.07;100.00;99056.34;5092638;28;20135;-49
2024/02/24 05:22:05;;;;;;;7.78;4.82;;;;;;;11.00;100.00;99057.81;5092940;28;20135;-49
2024/02/24 05:24:33;;;;;;;10.85;5.50;;;;;;;11.07;100.00;99059.00;5090583;28;20048;-51
2024/02/24 05:27:02;;;;;;;9.95;4.95;;;;;;;11.13;100.00;99078.06;5092060;28;20083;-49
2024/02/24 05:29:30;;;;;;;8.02;4.60;;;;;;;11.07;100.00;99080.34;5091134;28;20468;-50
2024/02/24 05:31:59;;;;;;;10.52;5.63;;;;;;;11.11;100.00;99072.00;5091813;28;20568;-46
2024/02/24 05:34:29;;;;;;;8.48;4.47;;;;;;;11.13;100.00;99063.88;5092033;28;20127;-47
2024/02/24 05:36:57;;;;;;;9.23;4.95;;;;;;;11.13;100.00;99078.06;5092064;28;20084;-46
2024/02/24 05:39:26;;;;;;;7.70;4.95;;;;;;;11.09;100.00;99089.09;5091821;28;20040;-46
2024/02/24 05:41:54;;;;;;;8.52;4.88;;;;;;;11.08;100.00;99092.72;5091659;28;20122;-48
2024/02/24 05:44:22;;;;;;;8.70;4.63;;;;;;;11.07;100.00;99089.22;5091633;28;20054;-47
2024/02/24 05:46:51;;;;;;;9.77;4.68;;;;;;;11.06;100.00;99102.69;5091996;28;20393;-48
2024/02/24 05:49:19;;;;;;;7.90;4.53;;;;;;;11.00;100.00;99106.72;5091655;28;20052;-45
2024/02/24 05:51:49;;;;;;;6.60;4.10;;;;;;;10.97;100.00;99109.59;5091905;28;20405;-47
2024/02/24 05:54:17;;;;;;;8.10;4.90;;;;;;;10.88;100.00;99113.84;5091651;28;20388;-47
2024/02/24 05:56:45;;;;;;;7.88;4.50;;;;;;;10.99;100.00;99123.66;5091699;28;20040;-47
2024/02/24 05:59:14;;;;;;;8.82;4.82;;;;;;;11.04;100.00;99140.16;5091700;28;20051;-47
2024/02/24 06:01:42;;;;;;;8.55;5.13;;;;;;;10.98;100.00;99145.97;5091456;28;20494;-50
2024/02/24 06:04:10;;;;;;;8.70;4.72;;;;;;;11.03;100.00;99153.63;5091570;28;20066;-47
2024/02/24 06:06:39;;;;;;;11.32;5.10;;;;;;;11.03;100.00;99137.63;5091519;28;20046;-47
2024/02/24 06:09:09;;;;;;;8.07;4.82;;;;;;;11.02;100.00;99146.59;5091189;28;20059;-48
2024/02/24 06:11:37;;;;;;;11.13;4.75;;;;;;;10.97;100.00;99148.78;5091533;28;20105;-48
2024/02/24 06:14:06;;;;;;;8.98;4.70;;;;;;;10.94;100.00;99152.53;5091401;28;20040;-50
2024/02/24 06:16:34;;;;;;;7.45;4.30;;;;;;;10.97;100.00;99154.97;5091262;28;20508;-50
2024/02/24 06:19:03;;;;;;;7.40;4.63;;;;;;;11.00;100.00;99157.41;5091208;28;20484;-48
2024/02/24 06:21:31;;;;;;;8.70;4.93;;;;;;;10.92;100.00;99164.31;5091207;28;20048;-48
2024/02/24 06:24:00;;;;;;;8.85;5.03;;;;;;;10.88;100.00;99172.53;5091027;28;20551;-47
2024/02/24 06:26:30;;;;;;;9.23;4.55;;;;;;;10.92;100.00;99183.00;5091176;28;20457;-48
2024/02/24 06:28:59;;;;;;;8.45;5.10;;;;;;;10.96;100.00;99195.09;5091313;28;20047;-48
2024/02/24 06:31:27;;;;;;;10.75;5.60;;;;;;;10.94;100.00;99191.72;5091253;28;20541;-48
2024/02/24 06:33:55;;;;;;;9.40;5.15;;;;;;;10.96;100.00;99189.78;5091685;28;20047;-48
2024/02/24 06:36:24;;;;;;;8.25;5.30;;;;;;;10.97;100.00;99191.47;5091271;28;20125;-47
2024/02/24 06:38:52;;;;;;;9.32;5.38;;;;;;;10.99;100.00;99194.84;5091195;28;20048;-48
2024/02/24 06:41:23;;;;;;;8.32;5.30;;;;;;;11.04;100.00;99208.69;5090747;28;20557;-51
2024/02/24 06:43:53;;;;;;;8.75;5.10;;;;;;;11.09;100.00;99206.50;5090813;28;20045;-53
2024/02/24 06:46:21;;;;;;;11.20;5.00;;;;;;;11.10;100.00;99209.06;5090970;28;20043;-49
2024/02/24 06:48:49;;;;;;;9.55;4.97;;;;;;;11.18;100.00;99214.63;5090773;28;20498;-47
2024/02/24 06:51:18;;;;;;;10.57;5.85;;;;;;;11.21;100.00;99216.22;5090950;28;20142;-48
2024/02/24 06:53:47;;;;;;;16.83;8.13;;;;;;;11.22;100.00;99207.25;5090583;28;20143;-47
2024/02/24 06:56:20;;;;;;;9.82;5.57;;;;;;;11.18;100.00;99219.13;5090877;28;20080;-47
2024/02/24 06:58:48;;;;;;;8.93;5.35;;;;;;;11.23;100.00;99224.97;5090738;28;20092;-47
2024/02/24 07:01:22;;;;;;;12.23;5.80;;;;;;;11.25;100.00;99232.84;5090620;28;20044;-47
2024/02/24 07:03:51;;;;;;;10.63;5.78;;;;;;;11.26;100.00;99235.38;5090772;28;20063;-50
2024/02/24 07:06:19;;;;;;;9.32;5.70;;;;;;;11.28;100.00;99233.44;5090668;28;20044;-49
2024/02/24 07:08:47;;;;;;;9.38;5.50;;;;;;;11.33;100.00;99231.28;5090598;28;20044;-48
2024/02/24 07:11:16;;;;;;;10.43;6.00;;;;;;;11.39;100.00;99238.81;5090488;28;20077;-47
2024/02/24 07:13:45;;;;;;;13.63;5.65;;;;;;;11.42;100.00;99245.72;5090775;28;20048;-48
2024/02/24 07:16:13;;;;;;;8.65;5.30;;;;;;;11.45;100.00;99248.97;5090637;28;20407;-49
2024/02/24 07:18:43;;;;;;;7.65;4.80;;;;;;;11.50;100.00;99253.13;5092782;28;20416;-52
2024/02/24 07:21:11;;;;;;;10.40;4.80;;;;;;;11.52;100.00;99251.16;5094207;28;20052;-49
2024/02/24 07:23:40;;;;;;;10.35;4.90;;;;;;;11.55;100.00;99254.44;5090674;28;20130;-50
2024/02/24 07:26:09;;;;;;;7.13;4.25;;;;;;;11.58;100.00;99256.00;5090493;28;20074;-50
2024/02/24 07:28:37;;;;;;;9.23;4.47;;;;;;;11.62;100.00;99254.81;5090502;28;20455;-49
2024/02/24 07:31:05;;;;;;;10.38;6.03;;;;;;;11.64;100.00;99266.22;5090718;28;20089;-49
2024/02/24 07:33:34;;;;;;;10.95;6.10;;;;;;;11.67;100.00;99277.47;5090297;28;20548;-47
2024/02/24 07:36:04;;;;;;;9.18;5.20;;;;;;;11.69;100.00;99274.72;5090518;28;20044;-46
2024/02/24 07:38:34;;;;;;;9.63;4.85;;;;;;;11.58;100.00;99277.38;5090357;28;20051;-50
2024/02/24 07:41:04;;;;;;;9.68;4.57;;;;;;;11.65;100.00;99278.59;5089923;28;20507;-47
2024/02/24 07:43:35;;;;;;;8.52;4.63;;;;;;;11.69;100.00;99286.25;5090210;28;20048;-51
2024/02/24 07:46:04;;;;;;;8.52;4.50;;;;;;;11.78;100.00;99289.16;5090519;28;20077;-49
2024/02/24 07:48:32;;;;;;;8.07;4.70;;;;;;;11.77;100.00;99298.97;5090404;28;20089;-50
2024/02/24 07:51:00;;;;;;;7.70;4.40;;;;;;;11.87;100.00;99300.00;5090145;28;20075;-50
2024/02/24 07:53:30;;;;;;;6.70;4.30;;;;;;;11.94;100.00;99309.19;5092773;28;20135;-55
2024/02/24 07:55:58;;;;;;;6.95;4.53;;;;;;;12.03;100.00;99316.47;5093732;28;20072;-49
2024/02/24 07:58:27;;;;;;;7.13;4.20;;;;;;;12.12;100.00;99319.38;5093998;28;20101;-48
2024/02/24 08:00:55;;;;;;;8.75;4.85;;;;;;;12.15;100.00;99319.13;5093767;28;20048;-48
2024/02/24 08:03:23;;;;;;;7.65;4.30;;;;;;;12.27;100.00;99318.97;5093981;28;20059;-49
2024/02/24 08:05:51;;;;;;;7.18;4.20;;;;;;;12.35;100.00;99326.34;5094093;28;20050;-47
2024/02/24 08:08:20;;;;;;;7.18;4.00;;;;;;;12.38;100.00;99325.28;5093508;28;20121;-47
2024/02/24 08:10:49;;;;;;;7.00;3.92;;;;;;;12.48;100.00;99332.41;5094385;28;20541;-49
2024/02/24 08:13:18;;;;;;;7.38;4.28;;;;;;;12.52;100.00;99333.00;5093873;28;20055;-49
2024/02/24 08:15:46;;;;;;;8.98;4.13;;;;;;;12.58;100.00;99328.00;5093713;28;20180;-47
2024/02/24 08:18:15;;;;;;;6.65;3.95;;;;;;;12.70;100.00;99330.63;5093501;28;20044;-45
2024/02/24 08:20:44;;;;;;;6.80;3.40;;;;;;;12.88;99.38;99326.41;5093531;28;20048;-50
2024/02/24 08:23:12;;;;;;;6.47;3.15;;;;;;;12.85;99.49;99332.03;5093106;28;20078;-48
2024/02/24 08:25:40;;;;;;;6.60;3.25;;;;;;;12.88;97.90;99334.44;5093299;28;20112;-48
2024/02/24 08:28:10;;;;;;;6.18;2.83;;;;;;;12.92;97.69;99330.50;5093226;28;20051;-48
2024/02/24 08:30:39;;;;;;;6.35;3.20;;;;;;;12.97;97.18;99328.31;5093065;28;20530;-46
2024/02/24 08:33:07;;;;;;;7.13;2.85;;;;;;;12.99;96.47;99323.66;5093056;28;20059;-48
2024/02/24 08:35:36;;;;;;;5.38;2.53;;;;;;;13.00;95.69;99327.19;5093023;28;20072;-50
2024/02/24 08:38:04;;;;;;;6.93;3.05;;;;;;;13.14;95.31;99342.94;5093129;28;20048;-50
2024/02/24 08:40:33;;;;;;;4.80;2.83;;;;;;;13.10;92.32;99345.00;5093081;28;20134;-50
2024/02/24 08:43:01;;;;;;;4.63;2.25;;;;;;;13.22;92.20;99350.34;5093022;28;20048;-49
2024/02/24 08:45:31;;;;;;;5.53;2.50;;;;;;;13.21;93.30;99365.56;5092686;28;20058;-48
2024/02/24 08:47:59;;;;;;;5.45;2.47;;;;;;;13.07;95.19;99361.34;5092546;28;20044;-49
2024/02/24 08:50:27;;;;;;;4.78;2.35;;;;;;;12.87;95.03;99370.22;5092917;28;20048;-45
2024/02/24 08:52:56;;;;;;;4.80;2.38;;;;;;;12.86;93.95;99361.34;5092747;28;20059;-47
2024/02/24 08:55:24;;;;;;;6.38;2.75;;;;;;;12.88;93.33;99363.88;5092259;28;20070;-47
2024/02/24 08:57:52;;;;;;;5.78;3.05;;;;;;;12.67;95.76;99371.88;5092331;28;20051;-47
2024/02/24 09:00:21;;;;;;;8.68;5.05;;;;;;;12.68;94.36;99373.56;5092368;28;20044;-47
2024/02/24 09:02:50;;;;;;;12.40;6.40;;;;;;;12.78;93.94;99384.34;5092183;28;20048;-47
2024/02/24 09:05:18;;;;;;;12.07;5.97;;;;;;;12.67;95.55;99377.22;5092361;28;20055;-46
2024/02/24 09:07:47;;;;;;;8.68;4.35;;;;;;;12.75;94.72;99384.63;5092700;28;20166;-47
2024/02/24 09:10:16;;;;;;;9.95;4.85;;;;;;;12.82;94.58;99375.06;5092147;28;20131;-45
2024/02/24 09:12:44;;;;;;;11.27;6.20;;;;;;;12.80;94.54;99377.88;5092212;28;20535;-46
2024/02/24 09:15:12;;;;;;;10.30;5.20;;;;;;;12.78;93.32;99390.56;5091884;28;20050;-48
2024/02/24 09:17:41;;;;;;;9.82;4.25;;;;;;;12.73;93.85;99387.38;5092285;28;20043;-47
2024/02/24 09:20:11;;;;;;;9.98;3.85;;;;;;;12.83;92.58;99391.00;5092454;28;20048;-50
2024/02/24 09:22:41;;;;;;;6.13;2.15;;;;;;;12.84;92.68;99400.75;5092332;28;20048;-45
2024/02/24 09:25:14;;;;;;;4.90;2.10;;;;;;;12.93;91.71;99407.16;5092250;28;20171;-54
2024/02/24 09:27:42;;;;;;;3.63;1.58;;;;;;;12.93;88.61;99403.63;5092111;28;20048;-47
2024/02/24 09:30:11;;;;;;;6.18;1.77;;;;;;;13.07;89.45;99406.84;5091833;28;20142;-46
2024/02/24 09:32:40;;;;;;;4.15;1.73;;;;;;;13.06;89.90;99407.00;5092123;28;20075;-47
2024/02/24 09:35:10;;;;;;;3.35;1.42;;;;;;;13.05;90.88;99416.00;5086825;28;20108;-47
2024/02/24 09:37:38;;;;;;;9.40;2.00;;;;;;;13.16;89.26;99419.47;5090750;28;20127;-52
2024/02/24 09:40:08;;;;;;;5.50;2.28;;;;;;;13.23;88.21;99425.22;5090926;28;20105;-47
2024/02/24 09:42:37;;;;;;;3.30;1.52;;;;;;;13.28;86.88;99422.97;5091334;28;20097;-45
2024/02/24 09:45:12;;;;;;;5.20;1.83;;;;;;;13.41;85.82;99417.41;5091161;28;20048;-51
2024/02/24 09:47:41;;;;;;;7.07;2.00;;;;;;;13.30;84.46;99420.16;5090511;28;20661;-46
2024/02/24 09:50:12;;;;;;;23.20;5.72;;;;;;;13.27;84.31;99431.16;5091215;28;20041;-45
2024/02/24 09:52:41;;;;;;;33.17;8.57;;;;;;;13.36;86.72;99441.09;5090933;28;20048;-46
2024/02/24 09:55:11;;;;;;;6.95;2.28;;;;;;;13.49;84.17;99447.09;5090672;28;20082;-46
2024/02/24 09:57:42;;;;;;;9.38;2.50;;;;;;;13.39;85.77;99457.72;5090271;28;20040;-46
2024/02/24 10:00:14;;;;;;;3.80;1.58;;;;;;;13.51;80.86;99465.72;5090603;28;20477;-46
2024/02/24 10:02:42;;;;;;;6.20;1.80;;;;;;;13.36;83.82;99463.38;5090967;28;20048;-50
2024/02/24 10:05:14;;;;;;;6.70;1.80;;;;;;;13.41;82.08;99468.31;5091114;28;20048;-47
2024/02/24 10:07:43;;;;;;;5.05;1.50;;;;;;;13.39;82.34;99470.28;5089853;28;20188;-46
2024/02/24 10:10:14;;;;;;;4.50;1.50;;;;;;;13.32;83.86;99471.81;5090782;28;20190;-49
2024/02/24 10:12:56;;;;;;;5.93;1.95;;;;;;;13.37;85.18;99470.41;5089975;28;20044;-53
2024/02/24 10:15:25;;;;;;;4.70;1.75;;;;;;;13.36;84.72;99473.22;5090178;28;20491;-48
2024/02/24 10:17:55;;;;;;;4.18;2.10;;;;;;;13.40;85.17;99469.28;5089724;28;20044;-46
2024/02/24 10:20:26;;;;;;;6.82;2.55;;;;;;;13.50;83.98;99462.19;5090516;28;20597;-46
2024/02/24 10:22:54;;;;;;;6.15;2.28;;;;;;;13.55;82.09;99468.03;5090742;28;20044;-45
2024/02/24 10:25:23;;;;;;;5.38;1.90;;;;;;;13.64;81.35;99472.59;5090564;28;20052;-48
2024/02/24 10:27:52;;;;;;;9.23;2.05;;;;;;;13.68;82.76;99463.31;5090019;28;20043;-45
2024/02/24 10:30:22;;;;;;;3.97;1.60;;;;;;;13.75;82.18;99469.00;5090528;28;20079;-45
2024/02/24 10:32:54;;;;;;;5.53;1.77;;;;;;;13.81;82.99;99463.13;5090412;28;20056;-49
2024/02/24 10:35:22;;;;;;;5.72;1.65;;;;;;;13.91;79.24;99463.19;5090089;28;20481;-46
2024/02/24 10:37:55;;;;;;;5.90;1.60;;;;;;;13.86;80.08;99468.06;5089413;28;20142;-48
2024/02/24 10:40:45;;;;;;;4.45;1.60;;;;;;;13.88;79.17;99471.47;5090521;28;20334;-45
2024/02/24 10:43:14;;;;;;;5.05;1.70;;;;;;;13.92;80.56;99479.13;5090308;28;20052;-47
2024/02/24 10:45:42;;;;;;;4.65;1.85;;;;;;;13.95;81.58;99476.16;5090161;28;20052;-44
2024/02/24 10:48:10;;;;;;;4.80;1.77;;;;;;;14.05;79.41;99481.59;5089335;28;20483;-47
2024/02/24 10:50:39;;;;;;;4.20;1.73;;;;;;;14.03;79.39;99472.84;5090367;28;20051;-47
2024/02/24 10:53:10;;;;;;;23.95;9.05;;;;;;;14.03;79.12;99473.69;5089789;28;20473;-47
2024/02/24 10:55:40;;;;;;;22.75;10.75;;;;;;;14.11;80.68;99475.69;5089599;28;20060;-45
2024/02/24 10:58:09;;;;;;;9.32;2.90;;;;;;;14.11;79.27;99474.84;5089137;28;20040;-46
2024/02/24 11:00:44;;;;;;;7.82;2.85;;;;;;;14.19;82.05;99478.56;5090551;28;20373;-46
2024/02/24 11:03:14;;;;;;;8.82;2.10;;;;;;;14.13;78.23;99478.25;5090298;28;20048;-47
2024/02/24 11:05:46;;;;;;;7.80;2.05;;;;;;;14.24;79.49;99476.31;5090167;28;20086;-45
2024/02/24 11:08:35;;;;;;;4.83;1.73;;;;;;;14.35;79.39;99475.38;5088774;28;20075;-46
2024/02/24 11:11:06;;;;;;;5.63;1.75;;;;;;;14.24;78.72;99487.03;5089828;28;20135;-48
2024/02/24 11:13:34;;;;;;;7.35;1.90;;;;;;;14.29;78.95;99492.03;5090249;28;20509;-45
2024/02/24 11:16:05;;;;;;;5.22;2.00;;;;;;;14.26;78.84;99490.44;5090625;28;20044;-46
2024/02/24 11:19:01;;;;;;;6.10;2.30;;;;;;;14.42;78.82;99481.91;5069448;28;20083;-47
2024/02/24 11:22:01;;;;;;;6.05;2.22;;;;;;;14.19;79.01;99481.25;5045505;28;20131;-48
2024/02/24 11:24:36;;;;;;;8.52;1.92;;;;;;;14.22;78.30;99488.16;5070040;28;20135;-52
2024/02/24 11:27:05;;;;;;;6.50;1.90;;;;;;;14.16;78.93;99480.66;5077658;28;20114;-46
2024/02/24 11:29:35;;;;;;;4.47;1.70;;;;;;;14.20;76.88;99480.25;5093576;28;20055;-49
2024/02/24 11:32:06;;;;;;;7.15;1.95;;;;;;;14.28;76.53;99484.94;5094099;28;20048;-49
2024/02/24 11:34:36;;;;;;;5.70;1.70;;;;;;;14.37;75.15;99477.91;5093632;28;20052;-48
2024/02/24 11:37:05;;;;;;;5.72;1.70;;;;;;;14.40;76.55;99477.66;5092753;28;20669;-47